Etusivu
METAR-TAF:

METAR-TAF

Lentoasemat :

Arlington Municipal Airport

Arlington, Washington, Yhdysvallat

Leveyspiiri: 48-10N, Pituuspiiri: 122-10W, korkeus merenpinnasta: 42 m

Tämänhetkinen sää

Tämä raportti tehtiin 16 minuuttia sitten, kello 16.39 UTC
tyyntä
Lämpötila 8°C
Kosteus 93%
Ilmanpaine 1016 hPa
Näkyvyys: 6.4 km
Muutamia pilviä 100 ft:n korkeudessa
utua

METAR: KAWO 181639Z AUTO 00000KT 4SM BR FEW001 08/07 A2999 RMK AO2 PNO $

Aika: 08:55 (16:55 UTC)


TAF: puuttuu

Säähavainnot ja -ennusteet yli 4000 lentoasemalta (METAR- ja TAF-raportit).

Käytössä olevat sääasemat on merkitty karttaan keltaisilla ja punaisilla pisteillä.

Aseta hiiri pisteen päälle nähdäksesi sääaseman nimen.

Klikkaa sitten nähdäksesi säähavainnot ja -ennusteet.

Kartan vaihtaminen: klikkaa mustalla rastilla varustettuja vihreitä pisteitä, niin voit zoomata sisään; viivalla varustettua vihreää pistettä, niin voit zoomata ulos tai vihreitä nuolia, niin pääset viereisille kartoille.


METAR-TAF: